sensor_id;sensor_type;location;lat;lon;timestamp;pressure;altitude;pressure_sealevel;temperature;humidity
69027;BME280;56080;47.594;19.116;2023-06-24T00:01:47;100304;;;20.49;87.06
69027;BME280;56080;47.594;19.116;2023-06-24T00:11:46;100326;;;20.67;85.17
69027;BME280;56080;47.594;19.116;2023-06-24T00:21:48;100359;;;20.36;87.95
69027;BME280;56080;47.594;19.116;2023-06-24T00:31:50;100366;;;20.21;92.60
69027;BME280;56080;47.594;19.116;2023-06-24T00:41:51;100365;;;20.25;90.72
69027;BME280;56080;47.594;19.116;2023-06-24T00:51:52;100346;;;20.13;89.41
69027;BME280;56080;47.594;19.116;2023-06-24T01:01:54;100326;;;22.74;75.77
69027;BME280;56080;47.594;19.116;2023-06-24T01:11:56;100301;;;22.89;67.64
69027;BME280;56080;47.594;19.116;2023-06-24T01:22:04;100296;;;21.66;79.70
69027;BME280;56080;47.594;19.116;2023-06-24T01:32:02;100270;;;21.47;78.98
69027;BME280;56080;47.594;19.116;2023-06-24T01:42:03;100274;;;21.12;81.81
69027;BME280;56080;47.594;19.116;2023-06-24T01:52:02;100259;;;22.73;67.69
69027;BME280;56080;47.594;19.116;2023-06-24T02:02:04;100273;;;21.26;74.41
69027;BME280;56080;47.594;19.116;2023-06-24T02:12:06;100248;;;20.12;80.78
69027;BME280;56080;47.594;19.116;2023-06-24T02:22:09;100235;;;19.91;79.20
69027;BME280;56080;47.594;19.116;2023-06-24T02:32:09;100260;;;19.21;88.74
69027;BME280;56080;47.594;19.116;2023-06-24T02:42:11;100260;;;19.38;88.80
69027;BME280;56080;47.594;19.116;2023-06-24T02:52:13;100279;;;18.86;91.57
69027;BME280;56080;47.594;19.116;2023-06-24T03:02:13;100269;;;19.36;85.18
69027;BME280;56080;47.594;19.116;2023-06-24T03:12:15;100292;;;19.05;87.63
69027;BME280;56080;47.594;19.116;2023-06-24T03:22:17;100297;;;19.69;80.45
69027;BME280;56080;47.594;19.116;2023-06-24T03:32:18;100322;;;19.60;79.50
69027;BME280;56080;47.594;19.116;2023-06-24T03:42:19;100304;;;19.53;78.51
69027;BME280;56080;47.594;19.116;2023-06-24T03:52:21;100319;;;23.03;63.00
69027;BME280;56080;47.594;19.116;2023-06-24T04:02:23;100324;;;22.87;62.59
69027;BME280;56080;47.594;19.116;2023-06-24T04:12:25;100354;;;23.07;61.77
69027;BME280;56080;47.594;19.116;2023-06-24T04:22:27;100359;;;22.80;62.12
69027;BME280;56080;47.594;19.116;2023-06-24T04:32:28;100364;;;23.11;60.99
69027;BME280;56080;47.594;19.116;2023-06-24T04:42:30;100349;;;23.35;60.37
69027;BME280;56080;47.594;19.116;2023-06-24T04:52:32;100351;;;24.40;56.70
69027;BME280;56080;47.594;19.116;2023-06-24T05:02:34;100368;;;26.02;51.43
69027;BME280;56080;47.594;19.116;2023-06-24T05:12:37;100367;;;26.14;50.14
69027;BME280;56080;47.594;19.116;2023-06-24T05:22:39;100367;;;26.65;48.99
69027;BME280;56080;47.594;19.116;2023-06-24T05:32:41;100371;;;28.23;45.22
69027;BME280;56080;47.594;19.116;2023-06-24T05:42:44;100390;;;28.36;44.53
69027;BME280;56080;47.594;19.116;2023-06-24T05:52:47;100399;;;28.07;45.16
69027;BME280;56080;47.594;19.116;2023-06-24T06:02:49;100407;;;27.17;46.68
69027;BME280;56080;47.594;19.116;2023-06-24T06:12:53;100403;;;27.41;47.30
69027;BME280;56080;47.594;19.116;2023-06-24T06:22:55;100426;;;27.83;46.34
69027;BME280;56080;47.594;19.116;2023-06-24T06:32:57;100432;;;27.52;46.50
69027;BME280;56080;47.594;19.116;2023-06-24T06:43:00;100441;;;26.80;48.53
69027;BME280;56080;47.594;19.116;2023-06-24T06:53:02;100452;;;27.60;46.86
69027;BME280;56080;47.594;19.116;2023-06-24T07:03:04;100451;;;29.01;44.58
69027;BME280;56080;47.594;19.116;2023-06-24T07:13:07;100444;;;29.34;43.03
69027;BME280;56080;47.594;19.116;2023-06-24T07:23:10;100448;;;29.78;42.02
69027;BME280;56080;47.594;19.116;2023-06-24T07:33:13;100449;;;30.05;41.96
69027;BME280;56080;47.594;19.116;2023-06-24T07:43:16;100453;;;30.33;41.26
69027;BME280;56080;47.594;19.116;2023-06-24T07:53:18;100468;;;28.73;44.11
69027;BME280;56080;47.594;19.116;2023-06-24T08:13:24;100474;;;27.46;48.04
69027;BME280;56080;47.594;19.116;2023-06-24T08:23:26;100476;;;27.18;49.54
69027;BME280;56080;47.594;19.116;2023-06-24T08:33:29;100474;;;27.50;49.70
69027;BME280;56080;47.594;19.116;2023-06-24T08:43:31;100471;;;28.26;47.34
69027;BME280;56080;47.594;19.116;2023-06-24T08:53:34;100477;;;26.50;52.66
69027;BME280;56080;47.594;19.116;2023-06-24T09:03:36;100478;;;28.33;48.95
69027;BME280;56080;47.594;19.116;2023-06-24T09:13:38;100464;;;28.24;49.29
69027;BME280;56080;47.594;19.116;2023-06-24T09:23:40;100466;;;26.32;54.37
69027;BME280;56080;47.594;19.116;2023-06-24T09:33:43;100472;;;26.17;54.50
69027;BME280;56080;47.594;19.116;2023-06-24T09:43:45;100473;;;25.63;56.85
69027;BME280;56080;47.594;19.116;2023-06-24T09:53:47;100466;;;26.65;55.49
69027;BME280;56080;47.594;19.116;2023-06-24T10:03:49;100464;;;26.92;53.51
69027;BME280;56080;47.594;19.116;2023-06-24T10:13:52;100462;;;27.32;52.89
69027;BME280;56080;47.594;19.116;2023-06-24T10:23:54;100442;;;27.08;53.43
69027;BME280;56080;47.594;19.116;2023-06-24T10:33:58;100428;;;27.23;53.65
69027;BME280;56080;47.594;19.116;2023-06-24T10:43:59;100427;;;27.41;52.38
69027;BME280;56080;47.594;19.116;2023-06-24T10:54:01;100418;;;26.95;53.41
69027;BME280;56080;47.594;19.116;2023-06-24T11:04:05;100426;;;27.05;53.13
69027;BME280;56080;47.594;19.116;2023-06-24T11:14:05;100432;;;27.24;53.39
69027;BME280;56080;47.594;19.116;2023-06-24T11:24:08;100433;;;26.85;53.88
69027;BME280;56080;47.594;19.116;2023-06-24T11:34:10;100423;;;26.89;55.17
69027;BME280;56080;47.594;19.116;2023-06-24T11:44:12;100413;;;27.00;54.08
69027;BME280;56080;47.594;19.116;2023-06-24T11:54:15;100396;;;27.18;54.25
69027;BME280;56080;47.594;19.116;2023-06-24T12:04:17;100378;;;26.73;54.68
69027;BME280;56080;47.594;19.116;2023-06-24T12:14:19;100360;;;26.71;56.18
69027;BME280;56080;47.594;19.116;2023-06-24T12:24:21;100369;;;26.90;55.04
69027;BME280;56080;47.594;19.116;2023-06-24T12:34:23;100360;;;26.85;55.40
69027;BME280;56080;47.594;19.116;2023-06-24T12:44:27;100362;;;27.12;55.25
69027;BME280;56080;47.594;19.116;2023-06-24T12:54:28;100357;;;27.08;55.53
69027;BME280;56080;47.594;19.116;2023-06-24T13:04:30;100353;;;26.86;56.48
69027;BME280;56080;47.594;19.116;2023-06-24T13:14:33;100339;;;26.91;56.20
69027;BME280;56080;47.594;19.116;2023-06-24T13:24:35;100347;;;26.71;57.02
69027;BME280;56080;47.594;19.116;2023-06-24T13:34:37;100347;;;26.85;57.29
69027;BME280;56080;47.594;19.116;2023-06-24T13:44:39;100353;;;26.88;56.88
69027;BME280;56080;47.594;19.116;2023-06-24T13:54:41;100360;;;26.77;57.23
69027;BME280;56080;47.594;19.116;2023-06-24T14:04:44;100366;;;26.35;57.38
69027;BME280;56080;47.594;19.116;2023-06-24T14:14:46;100348;;;26.63;57.26
69027;BME280;56080;47.594;19.116;2023-06-24T14:24:48;100341;;;26.56;57.71
69027;BME280;56080;47.594;19.116;2023-06-24T14:34:50;100338;;;26.13;59.21
69027;BME280;56080;47.594;19.116;2023-06-24T14:44:53;100339;;;26.13;58.41
69027;BME280;56080;47.594;19.116;2023-06-24T14:54:54;100325;;;26.20;58.34
69027;BME280;56080;47.594;19.116;2023-06-24T15:04:57;100311;;;26.20;59.06
69027;BME280;56080;47.594;19.116;2023-06-24T15:14:59;100305;;;26.13;58.81
69027;BME280;56080;47.594;19.116;2023-06-24T15:25:01;100302;;;25.92;58.86
69027;BME280;56080;47.594;19.116;2023-06-24T15:35:03;100314;;;25.76;59.63
69027;BME280;56080;47.594;19.116;2023-06-24T15:45:05;100314;;;25.80;59.16
69027;BME280;56080;47.594;19.116;2023-06-24T15:55:08;100303;;;25.92;59.23
69027;BME280;56080;47.594;19.116;2023-06-24T16:05:09;100305;;;25.53;60.72
69027;BME280;56080;47.594;19.116;2023-06-24T16:15:11;100290;;;25.43;61.41
69027;BME280;56080;47.594;19.116;2023-06-24T16:25:13;100290;;;25.35;61.93
69027;BME280;56080;47.594;19.116;2023-06-24T16:35:15;100293;;;25.05;62.76
69027;BME280;56080;47.594;19.116;2023-06-24T16:45:19;100295;;;25.26;61.98
69027;BME280;56080;47.594;19.116;2023-06-24T16:55:19;100296;;;25.20;62.69
69027;BME280;56080;47.594;19.116;2023-06-24T17:05:21;100291;;;24.73;63.94
69027;BME280;56080;47.594;19.116;2023-06-24T17:25:25;100293;;;24.95;63.58
69027;BME280;56080;47.594;19.116;2023-06-24T17:35:28;100293;;;24.83;63.37
69027;BME280;56080;47.594;19.116;2023-06-24T17:45:32;100295;;;24.70;63.22
69027;BME280;56080;47.594;19.116;2023-06-24T17:55:32;100288;;;24.36;63.59
69027;BME280;56080;47.594;19.116;2023-06-24T18:05:34;100301;;;24.31;63.67
69027;BME280;56080;47.594;19.116;2023-06-24T18:15:35;100295;;;24.17;64.39
69027;BME280;56080;47.594;19.116;2023-06-24T18:25:37;100297;;;23.84;64.70
69027;BME280;56080;47.594;19.116;2023-06-24T18:35:40;100297;;;23.65;65.54
69027;BME280;56080;47.594;19.116;2023-06-24T18:45:41;100317;;;23.59;65.87
69027;BME280;56080;47.594;19.116;2023-06-24T18:55:43;100330;;;23.42;65.79
69027;BME280;56080;47.594;19.116;2023-06-24T19:05:45;100340;;;23.46;65.67
69027;BME280;56080;47.594;19.116;2023-06-24T19:15:47;100352;;;23.26;65.77
69027;BME280;56080;47.594;19.116;2023-06-24T19:25:49;100376;;;22.93;66.54
69027;BME280;56080;47.594;19.116;2023-06-24T19:35:51;100389;;;22.80;67.08
69027;BME280;56080;47.594;19.116;2023-06-24T19:45:52;100409;;;22.58;68.05
69027;BME280;56080;47.594;19.116;2023-06-24T19:55:54;100413;;;22.17;70.01
69027;BME280;56080;47.594;19.116;2023-06-24T20:05:56;100408;;;22.10;70.63
69027;BME280;56080;47.594;19.116;2023-06-24T20:15:58;100413;;;21.87;71.95
69027;BME280;56080;47.594;19.116;2023-06-24T20:25:59;100413;;;21.85;72.74
69027;BME280;56080;47.594;19.116;2023-06-24T20:36:01;100415;;;21.97;72.65
69027;BME280;56080;47.594;19.116;2023-06-24T20:46:03;100406;;;21.89;72.46
69027;BME280;56080;47.594;19.116;2023-06-24T20:56:04;100411;;;21.77;73.01
69027;BME280;56080;47.594;19.116;2023-06-24T21:06:06;100405;;;21.63;73.86
69027;BME280;56080;47.594;19.116;2023-06-24T21:16:08;100405;;;21.65;74.36
69027;BME280;56080;47.594;19.116;2023-06-24T21:26:09;100421;;;21.68;74.45
69027;BME280;56080;47.594;19.116;2023-06-24T21:36:13;100423;;;21.78;74.37
69027;BME280;56080;47.594;19.116;2023-06-24T21:46:13;100415;;;21.60;75.64
69027;BME280;56080;47.594;19.116;2023-06-24T21:56:15;100413;;;21.61;76.21
69027;BME280;56080;47.594;19.116;2023-06-24T22:06:16;100413;;;21.68;76.84
69027;BME280;56080;47.594;19.116;2023-06-24T22:16:18;100411;;;21.64;78.26
69027;BME280;56080;47.594;19.116;2023-06-24T22:26:20;100421;;;21.55;81.26
69027;BME280;56080;47.594;19.116;2023-06-24T22:36:22;100425;;;21.46;83.28
69027;BME280;56080;47.594;19.116;2023-06-24T22:46:23;100415;;;21.07;85.45
69027;BME280;56080;47.594;19.116;2023-06-24T22:56:25;100420;;;21.22;85.12
69027;BME280;56080;47.594;19.116;2023-06-24T23:06:27;100408;;;21.19;86.07
69027;BME280;56080;47.594;19.116;2023-06-24T23:16:28;100404;;;20.99;87.97
69027;BME280;56080;47.594;19.116;2023-06-24T23:26:35;100398;;;21.23;87.16
69027;BME280;56080;47.594;19.116;2023-06-24T23:36:33;100395;;;21.23;87.55
69027;BME280;56080;47.594;19.116;2023-06-24T23:46:34;100375;;;20.90;88.59
69027;BME280;56080;47.594;19.116;2023-06-24T23:56:35;100369;;;21.00;88.58
